Latest Weather Observations for Warragul (Nilma North)

IDV60801

Issued at 1:02 pm EDT Thursday 19 January 2017 (issued every 30 minutes, with the page automatically refreshed every 10 minutes)

About weather observations | Map of weather stations | Latest weather observations for VIC | Other Formats
Station Details ID: 085313 Name: NILMA NORTH (WARRAGUL) Lat: -38.13 Lon: 145.99 Height: 134.11 m
Data from the previous 72 hours. | See also: Recent months for locations in Victoria
Date/Time
EDT
Temp
°C
App
Temp
°C
Dew
Point
°C
Rel
Hum
%
Delta-T
°C
Wind Press
QNH
hPa
Press
MSL
hPa
Rain since
9am
mm
Dir  Spd
km/h
Gust
km/h
Spd
kts
Gust
kts
19/01:00pm 21.8 18.2 10.6 49 6.2 ESE 20 35 11 19 1011.1 1010.7 0.0
19/12:30pm 21.3 17.9 9.2 46 6.5 E 17 30 9 16 1011.7 1011.3 0.0
19/12:00pm 20.0 15.4 8.0 46 6.2 ESE 22 33 12 18 1011.9 1011.5 0.0
19/11:30am 19.6 15.5 8.6 49 5.8 ESE 20 32 11 17 1012.2 1011.8 0.0
19/11:00am 18.7 14.8 9.5 55 4.9 E 20 30 11 16 1012.7 1012.3 0.0
19/10:30am 18.1 14.5 10.0 59 4.3 ESE 19 30 10 16 1013.1 1012.7 0.0
19/10:00am 16.3 12.4 9.3 63 3.6 ESE 20 30 11 16 1013.4 1013.0 0.0
19/09:30am 15.5 11.7 9.0 65 3.4 ESE 19 28 10 15 1013.4 1013.0 0.0
19/09:00am 14.0 10.6 9.2 73 2.5 ESE 17 30 9 16 1014.0 1013.6 0.0
19/08:30am 12.4 10.2 9.4 82 1.5 ESE 11 17 6 9 1014.5 1014.1 0.0
19/08:00am 10.8 8.4 8.6 86 1.1 ESE 11 15 6 8 1014.6 1014.2 0.0
19/07:30am 9.4 7.7 8.3 93 0.5 E 7 11 4 6 1014.6 1014.2 0.0
19/07:00am 7.7 6.7 7.3 97 0.2 ENE 2 4 1 2 1014.7 1014.3 0.0
19/06:30am 5.6 4.1 5.0 96 0.3 ESE 2 2 1 1 1014.6 1014.2 0.0
19/06:00am 5.6 4.4 4.7 94 0.4 CALM 0 0 0 0 1014.5 1014.1 0.0
19/05:30am 6.5 5.5 5.8 95 0.3 CALM 0 0 0 0 1014.7 1014.3 0.0
19/05:00am 6.4 5.4 5.7 95 0.3 CALM 0 0 0 0 1014.7 1014.3 0.0
19/04:30am 6.3 5.3 5.4 94 0.4 CALM 0 0 0 0 1014.6 1014.2 0.0
19/04:00am 6.6 5.2 5.7 94 0.4 E 2 4 1 2 1014.8 1014.4 0.0
19/03:30am 6.5 5.0 5.0 90 0.7 SSE 2 6 1 3 1015.2 1014.8 0.0
19/03:00am 8.0 6.8 6.5 90 0.7 E 2 2 1 1 1015.4 1015.0 0.0
19/02:30am 8.5 7.4 7.0 90 0.7 NNE 2 7 1 4 1015.8 1015.4 0.0
19/02:00am 8.5 7.8 7.0 90 0.7 CALM 0 4 0 2 1015.9 1015.5 0.0
19/01:30am 8.8 8.1 6.8 87 0.9 CALM 0 0 0 0 1016.3 1015.9 0.0
19/01:00am 9.2 8.1 7.0 86 1.0 NE 2 2 1 1 1016.7 1016.3 0.0
19/12:30am 9.0 7.8 6.6 85 1.1 NE 2 6 1 3 1017.0 1016.6 0.0
19/12:00am 9.7 8.9 6.4 80 1.5 CALM 0 0 0 0 1017.3 1016.9 0.0
 
Date/Time
EDT
Temp
°C
App
Temp
°C
Dew
Point
°C
Rel
Hum
%
Delta-T
°C
Wind Press
QNH
hPa
Press
MSL
hPa
Rain since
9am
mm
Dir  Spd
km/h
Gust
km/h
Spd
kts
Gust
kts
18/11:30pm 10.7 9.3 7.2 79 1.7 NW 4 7 2 4 1017.4 1017.0 0.0
18/11:00pm 11.1 10.0 7.0 76 2.0 WSW 2 4 1 2 1017.5 1017.1 0.0
18/10:30pm 12.2 11.7 7.9 75 2.1 CALM 0 4 0 2 1017.5 1017.1 0.0
18/10:00pm 12.3 11.7 7.4 72 2.4 CALM 0 2 0 1 1017.4 1017.0 0.0
18/09:30pm 12.5 11.0 6.8 68 2.7 SSE 4 6 2 3 1017.2 1016.8 0.0
18/09:00pm 13.8 11.9 6.9 63 3.4 SSE 6 7 3 4 1017.1 1016.7 0.0
18/08:30pm 14.7 12.2 6.5 58 4.0 S 9 13 5 7 1016.8 1016.4 0.0
18/08:00pm 16.0 12.5 5.3 49 5.1 S 13 17 7 9 1016.4 1016.0 0.0
18/07:30pm 16.9 13.7 4.9 45 5.7 S 11 19 6 10 1016.2 1015.8 0.0
18/07:00pm 17.7 14.0 4.6 42 6.3 S 13 19 7 10 1015.9 1015.5 0.0
18/06:30pm 18.3 15.0 6.2 45 6.0 SSW 13 24 7 13 1015.7 1015.3 0.0
18/06:00pm 18.9 15.8 5.7 42 6.5 SW 11 20 6 11 1015.6 1015.2 0.0
18/05:30pm 19.3 15.6 6.4 43 6.5 S 15 30 8 16 1015.6 1015.2 0.0
18/05:00pm 19.6 16.4 6.7 43 6.5 SSW 13 20 7 11 1015.4 1015.0 0.0
18/04:30pm 20.1 17.1 7.8 45 6.4 SSW 13 30 7 16 1015.3 1014.9 0.0
18/04:00pm 19.6 16.6 7.7 46 6.1 SW 13 26 7 14 1015.2 1014.8 0.0
18/03:30pm 20.4 18.2 9.3 49 5.9 SW 11 20 6 11 1015.1 1014.7 0.0
18/03:00pm 19.3 16.5 6.8 44 6.3 SW 11 22 6 12 1015.3 1014.9 0.0
18/02:30pm 21.1 17.6 7.3 41 7.1 WSW 15 26 8 14 1015.4 1015.0 0.0
18/02:00pm 20.3 17.1 7.0 42 6.8 SW 13 24 7 13 1015.3 1014.9 0.0
18/01:30pm 18.8 16.3 8.2 50 5.5 SW 11 20 6 11 1015.2 1014.8 0.0
18/01:00pm 19.0 16.3 8.9 52 5.3 WSW 13 24 7 13 1015.0 1014.6 0.0
18/12:30pm 19.0 15.7 9.5 54 5.1 WSW 17 28 9 15 1014.7 1014.3 0.0
18/12:00pm 18.6 15.4 8.3 51 5.3 WSW 15 22 8 12 1014.5 1014.1 0.0
18/11:30am 19.9 16.4 8.6 48 5.9 WSW 17 28 9 15 1014.1 1013.7 0.0
18/11:00am 18.8 15.4 7.6 48 5.7 W 15 26 8 14 1013.9 1013.5 0.0
18/10:30am 18.2 15.0 6.7 47 5.8 WSW 13 24 7 13 1013.7 1013.3 0.0
18/10:00am 18.7 16.3 8.7 52 5.2 SW 11 26 6 14 1013.6 1013.2 0.0
18/09:30am 17.2 13.8 9.1 59 4.2 WSW 17 26 9 14 1013.3 1012.9 0.0
18/09:00am 16.1 13.7 10.0 67 3.2 WSW 13 24 7 13 1013.2 1012.8 0.0
18/08:30am 15.8 13.9 10.6 71 2.8 WSW 11 22 6 12 1013.0 1012.6 0.0
18/08:00am 14.8 13.4 11.0 78 2.0 WSW 9 19 5 10 1012.4 1012.0 0.0
18/07:30am 15.0 13.6 12.3 84 1.5 WSW 11 22 6 12 1011.7 1011.3 0.0
18/07:00am 14.8 12.4 12.7 87 1.2 WSW 17 30 9 16 1010.9 1010.5 0.0
18/06:30am 16.1 14.6 13.2 83 1.6 WSW 13 22 7 12 1009.9 1009.5 0.0
18/06:00am 16.3 14.7 12.8 80 2.0 WSW 13 20 7 11 1009.6 1009.2 0.0
18/05:30am 16.5 14.4 13.6 83 1.6 WSW 17 32 9 17 1008.8 1008.4 0.0
18/05:00am 17.5 17.4 15.0 85 1.5 WSW 9 19 5 10 1008.3 1007.9 0.0
18/04:30am 18.1 17.7 14.0 77 2.4 W 9 15 5 8 1008.0 1007.6 0.0
18/04:00am 18.1 18.2 13.8 76 2.5 NW 6 11 3 6 1008.3 1007.9 0.0
18/03:30am 18.8 17.4 13.4 71 3.1 W 13 20 7 11 1009.5 1009.1 0.0
18/03:00am 18.8 18.4 12.5 67 3.5 W 6 9 3 5 1009.6 1009.2 0.0
18/02:30am 18.9 18.9 12.4 66 3.6 W 4 9 2 5 1009.2 1008.8 0.0
18/02:00am 19.0 18.9 12.0 64 3.9 W 4 6 2 3 1009.2 1008.8 0.0
18/01:30am 19.3 19.5 11.8 62 4.2 NW 2 4 1 2 1009.3 1008.9 0.0
18/01:00am 19.6 19.3 11.6 60 4.4 NW 4 6 2 3 1009.8 1009.4 0.0
18/12:30am 20.1 19.5 11.6 58 4.7 NW 6 7 3 4 1010.2 1009.8 0.0
18/12:00am 21.3 20.0 11.1 52 5.7 W 9 13 5 7 1010.3 1009.9 0.0
 
Date/Time
EDT
Temp
°C
App
Temp
°C
Dew
Point
°C
Rel
Hum
%
Delta-T
°C
Wind Press
QNH
hPa
Press
MSL
hPa
Rain since
9am
mm
Dir  Spd
km/h
Gust
km/h
Spd
kts
Gust
kts
17/11:30pm 22.3 21.2 10.5 47 6.5 W 7 11 4 6 1010.3 1009.9 0.0
17/11:00pm 23.6 21.4 9.2 40 7.8 W 11 19 6 10 1010.1 1009.7 0.0
17/10:30pm 24.8 22.8 8.7 36 8.7 WSW 9 17 5 9 1009.6 1009.2 0.0
17/10:00pm 24.7 23.9 9.8 39 8.2 SSW 4 7 2 4 1009.5 1009.1 0.0
17/09:30pm 24.6 23.0 10.1 40 8.0 SSW 9 19 5 10 1008.4 1008.0 0.0
17/09:00pm 26.6 26.3 11.5 39 8.7 NNE 4 6 2 3 1006.8 1006.3 0.0
17/08:30pm 26.9 26.4 12.2 40 8.5 N 6 6 3 3 1005.8 1005.3 0.0
17/08:00pm 27.9 27.7 10.6 34 9.9 SSE 2 6 1 3 1005.4 1005.0 0.0
17/07:30pm 28.1 28.0 12.0 36 9.4 E 4 6 2 3 1005.1 1004.7 0.0
17/07:00pm 29.2 28.5 11.3 33 10.4 SSE 6 9 3 5 1005.0 1004.6 0.0
17/06:30pm 30.2 28.6 10.2 29 11.4 SSW 9 13 5 7 1005.2 1004.8 0.0
17/06:00pm 31.6 30.1 9.2 25 12.7 SW 7 13 4 7 1005.4 1005.0 0.0
17/05:30pm 32.9 31.4 9.0 23 13.6 WSW 7 13 4 7 1005.6 1005.2 0.0
17/05:00pm 34.3 32.0 7.4 19 15.0 WSW 9 15 5 8 1006.1 1005.6 0.0
17/04:30pm 33.4 31.8 8.8 22 13.9 W 7 15 4 8 1006.3 1005.8 0.0
17/04:00pm 32.8 30.7 8.3 22 13.8 WSW 9 15 5 8 1006.7 1006.2 0.0
17/03:30pm 32.5 30.2 7.4 21 13.8 WSW 9 20 5 11 1007.1 1006.6 0.0
17/03:00pm 32.2 28.5 6.4 20 14.0 WSW 15 26 8 14 1007.4 1007.0 0.0
17/02:30pm 33.0 29.6 7.8 21 14.0 WSW 15 32 8 17 1007.5 1007.1 0.0
17/02:00pm 34.3 31.9 10.2 23 14.0 SW 13 24 7 13 1007.7 1007.3 0.0
17/01:30pm 34.2 30.0 7.3 19 14.9 W 19 33 10 18 1007.4 1007.0 0.0
17/01:00pm 35.2 30.6 6.5 17 15.9 WNW 20 39 11 21 1007.5 1007.1 0.0
17/12:30pm 34.2 32.2 11.4 25 13.5 W 13 24 7 13 1007.7 1007.3 0.0
17/12:00pm 31.4 29.2 12.2 30 11.4 W 15 22 8 12 1008.0 1007.6 0.0
17/11:30am 30.6 30.2 13.0 34 10.5 WSW 7 11 4 6 1008.4 1008.0 0.0
17/11:00am 29.1 29.0 13.3 37 9.4 WSW 6 9 3 5 1008.6 1008.2 0.0
17/10:30am 27.6 26.8 11.6 37 9.2 W 7 11 4 6 1008.9 1008.5 0.0
17/10:00am 26.1 25.3 11.8 41 8.2 WSW 7 11 4 6 1009.2 1008.8 0.0
17/09:30am 25.1 25.0 13.3 48 6.9 WNW 6 9 3 5 1009.3 1008.9 0.0
17/09:00am 23.8 24.3 13.9 54 5.8 WSW 4 7 2 4 1009.6 1009.2 0.0
17/08:30am 21.5 22.6 14.6 65 4.1 NNW 2 4 1 2 1009.8 1009.4 0.0
17/08:00am 17.9 18.9 15.3 85 1.5 NW 4 6 2 3 1009.7 1009.3 0.0
17/07:30am 16.4 17.8 15.3 93 0.6 NNW 2 6 1 3 1009.2 1008.8 0.0
17/07:00am 15.3 15.9 14.2 93 0.6 WNW 4 4 2 2 1008.9 1008.5 0.0
17/06:30am 15.2 16.5 14.1 93 0.6 CALM 0 4 0 2 1008.3 1007.9 0.0
17/06:00am 15.1 16.3 13.8 92 0.7 CALM 0 4 0 2 1008.0 1007.6 0.0
17/05:30am 15.0 16.2 13.9 93 0.6 CALM 0 2 0 1 1007.8 1007.4 0.0
17/05:00am 14.9 16.1 13.8 93 0.6 CALM 0 0 0 0 1007.7 1007.3 0.0
17/04:30am 14.7 15.8 13.4 92 0.7 CALM 0 0 0 0 1007.6 1007.2 0.0
17/04:00am 15.2 16.4 13.9 92 0.7 CALM 0 0 0 0 1007.9 1007.5 0.0
17/03:30am 15.3 16.5 13.7 90 0.9 CALM 0 0 0 0 1008.1 1007.7 0.0
17/03:00am 16.0 16.9 14.0 88 1.1 SE 2 4 1 2 1008.4 1008.0 0.0
17/02:30am 16.3 16.5 14.1 87 1.3 E 6 7 3 4 1008.4 1008.0 0.0
17/02:00am 16.5 16.5 14.3 87 1.3 ENE 7 11 4 6 1008.9 1008.5 0.0
17/01:30am 16.5 16.4 14.0 85 1.4 ENE 7 13 4 7 1009.3 1008.9 0.0
17/01:00am 17.1 17.6 14.0 82 1.8 E 4 9 2 5 1009.9 1009.5 0.0
17/12:30am 17.8 17.3 13.9 78 2.2 E 9 17 5 9 1010.0 1009.6 0.0
17/12:00am 18.2 17.0 14.1 77 2.4 E 13 17 7 9 1010.2 1009.8 0.0
 
Date/Time
EDT
Temp
°C
App
Temp
°C
Dew
Point
°C
Rel
Hum
%
Delta-T
°C
Wind Press
QNH
hPa
Press
MSL
hPa
Rain since
9am
mm
Dir  Spd
km/h
Gust
km/h
Spd
kts
Gust
kts
16/11:30pm 18.5 18.1 14.0 75 2.6 E 9 19 5 10 1010.4 1010.0 0.0
16/11:00pm 19.2 18.8 14.2 73 2.9 E 9 17 5 9 1010.5 1010.1 0.0
16/10:30pm 19.6 18.9 14.2 71 3.1 ENE 11 17 6 9 1010.9 1010.5 0.0
16/10:00pm 20.3 19.2 14.4 69 3.5 E 13 20 7 11 1011.0 1010.6 0.0
16/09:30pm 21.1 20.0 14.3 65 4.0 E 13 19 7 10 1011.3 1010.9 0.0
16/09:00pm 22.2 21.1 14.3 61 4.7 E 13 19 7 10 1011.2 1010.8 0.0
16/08:30pm 24.1 23.8 14.5 55 5.7 E 9 15 5 8 1011.2 1010.8 0.0
16/08:00pm 27.4 28.2 13.7 43 8.2 ESE 2 2 1 1 1010.9 1010.5 0.0
16/07:30pm 28.6 28.0 11.6 34 9.9 S 6 7 3 4 1010.7 1010.3 0.0
16/07:00pm 30.0 28.7 10.0 29 11.4 SSW 7 11 4 6 1010.6 1010.2 0.0
16/06:30pm 29.7 28.8 10.8 31 10.9 SSW 6 11 3 6 1010.3 1009.9 0.0
16/06:00pm 29.5 28.4 10.6 31 10.8 S 7 11 4 6 1010.5 1010.1 0.0
16/05:30pm 29.5 28.8 12.0 34 10.2 S 7 11 4 6 1010.8 1010.4 0.0
16/05:00pm 29.1 27.8 9.8 30 10.9 SW 7 13 4 7 1011.3 1010.9 0.0
16/04:30pm 30.0 28.9 10.0 29 11.4 W 6 15 3 8 1011.5 1011.1 0.0
16/04:00pm 29.0 27.3 9.7 30 10.9 SW 9 20 5 11 1012.0 1011.6 0.0
16/03:30pm 28.4 27.5 11.5 35 9.8 SW 7 13 4 7 1012.4 1012.0 0.0
16/03:00pm 27.7 25.9 10.9 35 9.6 WSW 11 20 6 11 1012.8 1012.4 0.0
16/02:30pm 27.6 25.8 10.8 35 9.6 WSW 11 20 6 11 1013.2 1012.8 0.0
16/02:00pm 27.1 24.6 11.2 37 9.1 WSW 15 20 8 11 1013.4 1013.0 0.0
16/01:30pm 26.4 23.9 10.9 38 8.8 W 15 24 8 13 1013.9 1013.5 0.0

Other Formats:

Comma delimited format used in spreadsheet applications
http://www.bom.gov.au/fwo/IDV60801/IDV60801.99806.axf

JavaScript Object Notation format (JSON) in row-major order
http://www.bom.gov.au/fwo/IDV60801/IDV60801.99806.json